-eschilo — IYRY — position and weather

sailwx.info

Track history (hours):
 
Tides and Currents Weather Stations Pressure Air Temp Water Temp Dewpoint Dewpoint Depression Visibility Wind Speed Wind Dir Waves Ship Positions

-eschilo

Last reported at 2017-Dec-15 17:27 UTC. Time now 2017-Dec-16 03:41 UTC.
Position N 38°13' E 015°14'.

; draft 4.1 m.

Type: High speed craft. MMSI: 247154300.

Date/timePositionNaut miles runAvg speedWind from/ knotsBaromVisibWave heightAir tempDewpointWater temp
2017-Dec-15 17:27N 38°13' E 015°14'3 0.7
2017-Dec-15 13:16N 38°16' E 015°16'311.9
2017-Dec-15 13:00N 38°13' E 015°14'0 0.0
2017-Dec-15 12:30N 38°13' E 015°14'4 0.6
2017-Dec-15 06:15N 38°16' E 015°16'414.3
2017-Dec-15 06:00N 38°13' E 015°14'0 0.2
2017-Dec-15 05:30N 38°13' E 015°15'0 0.0
2017-Dec-15 05:00N 38°13' E 015°15'0 0.0
2017-Dec-14 17:29N 38°13' E 015°15'4 1.0
2017-Dec-14 13:17N 38°17' E 015°17'416.2
2017-Dec-14 13:00N 38°13' E 015°14'0 0.0
2017-Dec-14 12:30N 38°13' E 015°14'0 0.4
2017-Dec-14 12:00N 38°13' E 015°15'3 0.5
2017-Dec-14 06:14N 38°16' E 015°16'312.6
2017-Dec-14 06:01N 38°13' E 015°14'0 0.2
2017-Dec-14 05:30N 38°13' E 015°15'0 0.0
2017-Dec-14 05:01N 38°13' E 015°15'0 0.0
2017-Dec-14 04:31N 38°13' E 015°15'0 0.0
2017-Dec-13 17:28N 38°13' E 015°15'4 0.9
2017-Dec-13 13:18N 38°16' E 015°17'412.1
2017-Dec-13 13:00N 38°13' E 015°14'0 0.3
2017-Dec-13 12:30N 38°13' E 015°15'0 0.1
2017-Dec-13 12:00N 38°13' E 015°15'3 0.6
2017-Dec-13 06:16N 38°16' E 015°16'312.8
2017-Dec-13 06:00N 38°13' E 015°14'0 0.0
2017-Dec-13 05:30N 38°13' E 015°14'0 0.0
2017-Dec-13 04:56N 38°13' E 015°14'0 0.0
2017-Dec-12 18:19N 38°13' E 015°14'0 1.4
2017-Dec-12 18:01N 38°13' E 015°15'3 0.6
2017-Dec-12 12:36N 38°16' E 015°16'331.0
2017-Dec-12 12:31N 38°13' E 015°16'1 1.9
2017-Dec-12 12:00N 38°13' E 015°14'0 0.0
2017-Dec-12 11:30N 38°13' E 015°14'0 0.0
2017-Dec-12 11:00N 38°13' E 015°14'0 0.0
2017-Dec-12 10:30N 38°13' E 015°14'0 0.0
2017-Dec-12 10:00N 38°13' E 015°14'0 0.4
2017-Dec-12 09:30N 38°13' E 015°15'0 0.0
2017-Dec-12 09:00N 38°13' E 015°15'4 1.1
2017-Dec-12 05:46N 38°16' E 015°17'414.8
2017-Dec-12 05:30N 38°13' E 015°14'0 0.0
2017-Dec-12 05:00N 38°13' E 015°14'0 0.0
2017-Dec-12 04:30N 38°13' E 015°14'0 0.0
2017-Dec-11 18:19N 38°13' E 015°14'3 8.3
2017-Dec-11 18:00N 38°15' E 015°17'2 0.3
2017-Dec-11 12:40N 38°17' E 015°16'425.1
2017-Dec-11 12:30N 38°13' E 015°15'0 0.9
2017-Dec-11 12:00N 38°13' E 015°14'0 0.0
2017-Dec-11 11:30N 38°13' E 015°14'0 0.0
2017-Dec-11 11:00N 38°13' E 015°14'0 0.0
2017-Dec-11 10:30N 38°13' E 015°14'0 0.0
2017-Dec-11 10:00N 38°13' E 015°14'0 0.4
2017-Dec-11 09:30N 38°13' E 015°15'0 0.0
2017-Dec-11 09:00N 38°13' E 015°15'0 0.7
2017-Dec-11 08:30N 38°13' E 015°15'4 1.3
2017-Dec-11 05:16N 38°17' E 015°18'417.1
2017-Dec-11 05:00N 38°13' E 015°14'0 0.0
2017-Dec-11 04:31N 38°13' E 015°14'0 0.0
2017-Dec-10 18:09N 38°13' E 015°14'1 8.2
2017-Dec-10 18:01N 38°14' E 015°16'3 0.5
2017-Dec-10 12:35N 38°16' E 015°16'232.1
2017-Dec-10 12:31N 38°14' E 015°17'2 3.5
2017-Dec-10 11:58N 38°13' E 015°14'0 0.0
2017-Dec-10 11:31N 38°13' E 015°14'0 0.2
2017-Dec-10 10:55N 38°13' E 015°15'0 0.0
2017-Dec-10 10:25N 38°13' E 015°15'0 0.0
2017-Dec-10 09:55N 38°13' E 015°15'0 0.0
2017-Dec-10 09:28N 38°13' E 015°15'0 0.0
2017-Dec-10 08:58N 38°13' E 015°15'0 0.0
2017-Dec-10 08:28N 38°13' E 015°15'0 0.0
2017-Dec-10 07:58N 38°13' E 015°15'0 0.0
2017-Dec-10 07:28N 38°13' E 015°15'0 0.0
2017-Dec-10 06:58N 38°13' E 015°15'0 0.0
2017-Dec-10 06:28N 38°13' E 015°15'0 0.0
2017-Dec-10 05:58N 38°13' E 015°15'0 0.0
2017-Dec-10 05:28N 38°13' E 015°15'0 0.0
2017-Dec-10 04:58N 38°13' E 015°15'0 0.0
2017-Dec-10 04:29N 38°13' E 015°15'0 0.0
2017-Dec-09 13:14N 38°13' E 015°15'0 0.0
2017-Dec-09 12:56N 38°13' E 015°15'0 0.0
2017-Dec-09 12:31N 38°13' E 015°15'0 0.0
2017-Dec-09 12:00N 38°13' E 015°15'0 0.0
2017-Dec-09 11:30N 38°13' E 015°15'0 0.3
2017-Dec-09 11:01N 38°13' E 015°15'0 0.4
2017-Dec-09 10:31N 38°13' E 015°14'1 1.7
2017-Dec-09 10:01N 38°13' E 015°16'3 0.8
2017-Dec-09 06:13N 38°16' E 015°17'315.7
2017-Dec-09 06:01N 38°13' E 015°15'0 0.2
2017-Dec-09 05:30N 38°13' E 015°15'0 0.0
2017-Dec-08 17:32N 38°13' E 015°15'0 0.0
2017-Dec-08 17:30N 38°13' E 015°15'4 0.9
2017-Dec-08 13:15N 38°16' E 015°17'415.0
2017-Dec-08 13:00N 38°13' E 015°14'0 0.4
2017-Dec-08 12:30N 38°13' E 015°15'0 0.0
2017-Dec-08 12:00N 38°13' E 015°15'3 0.6
2017-Dec-08 06:14N 38°16' E 015°17'314.7
2017-Dec-08 06:00N 38°13' E 015°14'0 0.3
2017-Dec-08 05:30N 38°13' E 015°15'0 0.0
2017-Dec-07 17:43N 38°13' E 015°15'0 0.6
2017-Dec-07 17:30N 38°13' E 015°14'4 0.9
2017-Dec-07 13:17N 38°16' E 015°17'413.0
2017-Dec-07 13:00N 38°13' E 015°14'0 0.3
2017-Dec-07 12:31N 38°13' E 015°15'0 0.1
2017-Dec-07 12:00N 38°13' E 015°15'3 0.6
2017-Dec-07 06:17N 38°16' E 015°17'412.6
2017-Dec-07 06:00N 38°13' E 015°14'0 0.0
2017-Dec-07 05:30N 38°13' E 015°14'  
Track history (hours):
 
Tides and Currents Weather Stations Pressure Air Temp Water Temp Dewpoint Dewpoint Depression Visibility Wind Speed Wind Dir Waves Ship Positions

-eschilo

Last reported at 2017-Dec-15 17:27 UTC. Time now 2017-Dec-16 03:41 UTC.
Position N 38°13' E 015°14'.

; draft 4.1 m.

Type: High speed craft. MMSI: 247154300.

Date/timePositionNaut miles runAvg speedWind from/ knotsBaromVisibWave heightAir tempDewpointWater temp
2017-Dec-15 17:27N 38°13' E 015°14'3 0.7
2017-Dec-15 13:16N 38°16' E 015°16'311.9
2017-Dec-15 13:00N 38°13' E 015°14'0 0.0
2017-Dec-15 12:30N 38°13' E 015°14'4 0.6
2017-Dec-15 06:15N 38°16' E 015°16'414.3
2017-Dec-15 06:00N 38°13' E 015°14'0 0.2
2017-Dec-15 05:30N 38°13' E 015°15'0 0.0
2017-Dec-15 05:00N 38°13' E 015°15'0 0.0
2017-Dec-14 17:29N 38°13' E 015°15'4 1.0
2017-Dec-14 13:17N 38°17' E 015°17'416.2
2017-Dec-14 13:00N 38°13' E 015°14'0 0.0
2017-Dec-14 12:30N 38°13' E 015°14'0 0.4
2017-Dec-14 12:00N 38°13' E 015°15'3 0.5
2017-Dec-14 06:14N 38°16' E 015°16'312.6
2017-Dec-14 06:01N 38°13' E 015°14'0 0.2
2017-Dec-14 05:30N 38°13' E 015°15'0 0.0
2017-Dec-14 05:01N 38°13' E 015°15'0 0.0
2017-Dec-14 04:31N 38°13' E 015°15'0 0.0
2017-Dec-13 17:28N 38°13' E 015°15'4 0.9
2017-Dec-13 13:18N 38°16' E 015°17'412.1
2017-Dec-13 13:00N 38°13' E 015°14'0 0.3
2017-Dec-13 12:30N 38°13' E 015°15'0 0.1
2017-Dec-13 12:00N 38°13' E 015°15'3 0.6
2017-Dec-13 06:16N 38°16' E 015°16'312.8
2017-Dec-13 06:00N 38°13' E 015°14'0 0.0
2017-Dec-13 05:30N 38°13' E 015°14'0 0.0
2017-Dec-13 04:56N 38°13' E 015°14'0 0.0
2017-Dec-12 18:19N 38°13' E 015°14'0 1.4
2017-Dec-12 18:01N 38°13' E 015°15'3 0.6
2017-Dec-12 12:36N 38°16' E 015°16'331.0
2017-Dec-12 12:31N 38°13' E 015°16'1 1.9
2017-Dec-12 12:00N 38°13' E 015°14'0 0.0
2017-Dec-12 11:30N 38°13' E 015°14'0 0.0
2017-Dec-12 11:00N 38°13' E 015°14'0 0.0
2017-Dec-12 10:30N 38°13' E 015°14'0 0.0
2017-Dec-12 10:00N 38°13' E 015°14'0 0.4
2017-Dec-12 09:30N 38°13' E 015°15'0 0.0
2017-Dec-12 09:00N 38°13' E 015°15'4 1.1
2017-Dec-12 05:46N 38°16' E 015°17'414.8
2017-Dec-12 05:30N 38°13' E 015°14'0 0.0
2017-Dec-12 05:00N 38°13' E 015°14'0 0.0
2017-Dec-12 04:30N 38°13' E 015°14'0 0.0
2017-Dec-11 18:19N 38°13' E 015°14'3 8.3
2017-Dec-11 18:00N 38°15' E 015°17'2 0.3
2017-Dec-11 12:40N 38°17' E 015°16'425.1
2017-Dec-11 12:30N 38°13' E 015°15'0 0.9
2017-Dec-11 12:00N 38°13' E 015°14'0 0.0
2017-Dec-11 11:30N 38°13' E 015°14'0 0.0
2017-Dec-11 11:00N 38°13' E 015°14'0 0.0
2017-Dec-11 10:30N 38°13' E 015°14'0 0.0
2017-Dec-11 10:00N 38°13' E 015°14'0 0.4
2017-Dec-11 09:30N 38°13' E 015°15'0 0.0
2017-Dec-11 09:00N 38°13' E 015°15'0 0.7
2017-Dec-11 08:30N 38°13' E 015°15'4 1.3
2017-Dec-11 05:16N 38°17' E 015°18'417.1
2017-Dec-11 05:00N 38°13' E 015°14'0 0.0
2017-Dec-11 04:31N 38°13' E 015°14'0 0.0
2017-Dec-10 18:09N 38°13' E 015°14'1 8.2
2017-Dec-10 18:01N 38°14' E 015°16'3 0.5
2017-Dec-10 12:35N 38°16' E 015°16'232.1
2017-Dec-10 12:31N 38°14' E 015°17'2 3.5
2017-Dec-10 11:58N 38°13' E 015°14'0 0.0
2017-Dec-10 11:31N 38°13' E 015°14'0 0.2
2017-Dec-10 10:55N 38°13' E 015°15'0 0.0
2017-Dec-10 10:25N 38°13' E 015°15'0 0.0
2017-Dec-10 09:55N 38°13' E 015°15'0 0.0
2017-Dec-10 09:28N 38°13' E 015°15'0 0.0
2017-Dec-10 08:58N 38°13' E 015°15'0 0.0
2017-Dec-10 08:28N 38°13' E 015°15'0 0.0
2017-Dec-10 07:58N 38°13' E 015°15'0 0.0
2017-Dec-10 07:28N 38°13' E 015°15'0 0.0
2017-Dec-10 06:58N 38°13' E 015°15'0 0.0
2017-Dec-10 06:28N 38°13' E 015°15'0 0.0
2017-Dec-10 05:58N 38°13' E 015°15'0 0.0
2017-Dec-10 05:28N 38°13' E 015°15'0 0.0
2017-Dec-10 04:58N 38°13' E 015°15'0 0.0
2017-Dec-10 04:29N 38°13' E 015°15'0 0.0
2017-Dec-09 13:14N 38°13' E 015°15'0 0.0
2017-Dec-09 12:56N 38°13' E 015°15'0 0.0
2017-Dec-09 12:31N 38°13' E 015°15'0 0.0
2017-Dec-09 12:00N 38°13' E 015°15'0 0.0
2017-Dec-09 11:30N 38°13' E 015°15'0 0.3
2017-Dec-09 11:01N 38°13' E 015°15'0 0.4
2017-Dec-09 10:31N 38°13' E 015°14'1 1.7
2017-Dec-09 10:01N 38°13' E 015°16'3 0.8
2017-Dec-09 06:13N 38°16' E 015°17'315.7
2017-Dec-09 06:01N 38°13' E 015°15'0 0.2
2017-Dec-09 05:30N 38°13' E 015°15'0 0.0
2017-Dec-08 17:32N 38°13' E 015°15'0 0.0
2017-Dec-08 17:30N 38°13' E 015°15'4 0.9
2017-Dec-08 13:15N 38°16' E 015°17'415.0
2017-Dec-08 13:00N 38°13' E 015°14'0 0.4
2017-Dec-08 12:30N 38°13' E 015°15'0 0.0
2017-Dec-08 12:00N 38°13' E 015°15'3 0.6
2017-Dec-08 06:14N 38°16' E 015°17'314.7
2017-Dec-08 06:00N 38°13' E 015°14'0 0.3
2017-Dec-08 05:30N 38°13' E 015°15'0 0.0
2017-Dec-07 17:43N 38°13' E 015°15'0 0.6
2017-Dec-07 17:30N 38°13' E 015°14'4 0.9
2017-Dec-07 13:17N 38°16' E 015°17'413.0
2017-Dec-07 13:00N 38°13' E 015°14'0 0.3
2017-Dec-07 12:31N 38°13' E 015°15'0 0.1
2017-Dec-07 12:00N 38°13' E 015°15'3 0.6
2017-Dec-07 06:17N 38°16' E 015°17'412.6
2017-Dec-07 06:00N 38°13' E 015°14'0 0.0
2017-Dec-07 05:30N 38°13' E 015°14'  

Dump ship's entire track history